Time;durP1;ratioP1;P1;durP2;ratioP2;P2;SDS_P1;SDS_P2;PMS_P1;PMS_P2;Temp;Humidity;BMP_temperature;BMP_pressure;BME280_temperature;BME280_humidity;BME280_pressure;Samples;Min_cycle;Max_cycle;Signal;HPM_P1;HPM_P2
2023/01/15 00:01:36;;;;;;;36.07;21.60;;;;;;;8.39;100.00;100065.44;5071522;28;20218;-54
2023/01/15 00:04:05;;;;;;;39.57;21.97;;;;;;;8.42;100.00;100065.53;5071384;28;20670;-53
2023/01/15 00:06:38;;;;;;;36.40;20.17;;;;;;;8.42;100.00;100067.22;5071372;28;20191;-54
2023/01/15 00:09:08;;;;;;;51.17;28.27;;;;;;;8.43;100.00;100059.59;5071407;28;20571;-54
2023/01/15 00:11:35;;;;;;;28.70;17.60;;;;;;;8.32;100.00;100066.06;5072014;28;20187;-54
2023/01/15 00:14:02;;;;;;;21.97;16.30;;;;;;;8.21;100.00;100052.81;5074917;28;20226;-54
2023/01/15 00:16:29;;;;;;;17.93;13.60;;;;;;;8.30;100.00;100068.53;5075218;28;20187;-54
2023/01/15 00:18:57;;;;;;;22.83;16.07;;;;;;;8.29;100.00;100068.50;5075216;28;20274;-54
2023/01/15 00:21:25;;;;;;;19.60;14.60;;;;;;;8.23;100.00;100070.81;5075229;28;20632;-54
2023/01/15 00:29:23;;;;;;;24.27;20.25;;;;;;;8.34;100.00;100064.41;5053002;28;20785;-53
2023/01/15 00:31:57;;;;;;;22.07;17.17;;;;;;;8.44;100.00;100068.13;5074853;28;20198;-54
2023/01/15 00:34:24;;;;;;;21.47;16.63;;;;;;;8.50;100.00;100066.66;5074564;28;20739;-53
2023/01/15 00:36:51;;;;;;;22.37;15.00;;;;;;;8.40;100.00;100056.94;5075407;28;20563;-54
2023/01/15 00:39:18;;;;;;;20.70;15.53;;;;;;;8.43;100.00;100064.72;5074361;28;21334;-54
2023/01/15 00:41:46;;;;;;;19.37;14.63;;;;;;;8.43;100.00;100058.72;5074697;28;20557;-54
2023/01/15 00:44:13;;;;;;;23.80;15.40;;;;;;;8.39;100.00;100059.44;5074885;28;20675;-54
2023/01/15 00:46:39;;;;;;;18.33;13.97;;;;;;;8.17;100.00;100039.88;5074551;28;20206;-54
2023/01/15 00:49:06;;;;;;;18.97;14.23;;;;;;;8.24;100.00;100064.88;5074605;28;20191;-54
2023/01/15 00:51:33;;;;;;;19.33;14.63;;;;;;;8.17;100.00;100055.22;5074632;28;20191;-54
2023/01/15 00:54:00;;;;;;;18.90;15.10;;;;;;;8.24;100.00;100057.19;5074853;28;20200;-54
2023/01/15 00:56:27;;;;;;;20.47;15.10;;;;;;;8.27;100.00;100053.06;5072923;28;20245;-54
2023/01/15 00:58:56;;;;;;;23.30;18.20;;;;;;;8.43;100.00;100058.72;5073406;28;20867;-54
2023/01/15 01:01:23;;;;;;;17.60;14.40;;;;;;;8.46;100.00;100054.56;5074108;28;20199;-54
2023/01/15 01:03:51;;;;;;;17.60;13.50;;;;;;;8.50;100.00;100056.41;5074167;28;20187;-53
2023/01/15 01:06:20;;;;;;;19.37;14.37;;;;;;;8.55;100.00;100048.88;5071676;28;20188;-54
2023/01/15 01:08:47;;;;;;;19.33;14.73;;;;;;;8.39;100.00;100034.69;5070811;28;20576;-53
2023/01/15 01:11:16;;;;;;;19.03;14.33;;;;;;;8.47;100.00;100051.19;5074235;28;20194;-53
2023/01/15 01:13:44;;;;;;;20.77;15.33;;;;;;;8.47;100.00;100056.31;5074098;28;20201;-53
2023/01/15 01:16:29;;;;;;;20.13;15.60;;;;;;;8.47;100.00;100058.88;5073782;28;20215;-53
2023/01/15 01:18:56;;;;;;;19.53;14.70;;;;;;;8.47;100.00;100058.00;5073956;28;20200;-53
2023/01/15 01:21:24;;;;;;;20.37;14.80;;;;;;;8.35;100.00;100034.56;5073933;28;20203;-53
2023/01/15 01:23:51;;;;;;;20.83;13.80;;;;;;;8.37;100.00;100036.34;5073326;28;20560;-54
2023/01/15 01:26:17;;;;;;;18.37;13.17;;;;;;;8.47;100.00;100053.75;5073576;28;20183;-53
2023/01/15 01:28:48;;;;;;;18.93;13.23;;;;;;;8.47;100.00;100053.75;5074056;28;20265;-53
2023/01/15 01:31:15;;;;;;;16.67;12.57;;;;;;;8.47;100.00;100051.19;5073602;28;20656;-53
2023/01/15 01:33:44;;;;;;;17.40;12.57;;;;;;;8.40;100.00;100049.25;5074098;28;20290;-54
2023/01/15 01:36:11;;;;;;;18.93;12.90;;;;;;;8.29;100.00;100043.75;5073999;28;20284;-53
2023/01/15 01:38:37;;;;;;;19.67;13.37;;;;;;;8.26;100.00;100046.19;5073701;28;20213;-54
2023/01/15 01:41:04;;;;;;;18.03;12.77;;;;;;;8.26;100.00;100046.19;5074033;28;20227;-54
2023/01/15 01:43:31;;;;;;;18.97;13.60;;;;;;;8.23;100.00;100046.09;5073270;28;20711;-54
2023/01/15 01:45:58;;;;;;;19.33;13.67;;;;;;;8.16;100.00;100038.13;5073734;28;20187;-54
2023/01/15 01:48:29;;;;;;;18.97;12.63;;;;;;;8.22;100.00;100052.00;5073514;28;20193;-53
2023/01/15 01:51:04;;;;;;;18.93;12.87;;;;;;;8.14;100.00;100039.78;5073375;28;20192;-54
2023/01/15 01:53:32;;;;;;;18.90;13.33;;;;;;;8.16;100.00;100038.13;5073403;28;20197;-54
2023/01/15 01:56:00;;;;;;;18.73;13.37;;;;;;;8.23;100.00;100045.22;5073957;28;20250;-53
2023/01/15 01:58:32;;;;;;;19.53;13.20;;;;;;;8.27;100.00;100041.94;5073369;28;20195;-54
2023/01/15 02:01:01;;;;;;;20.07;14.07;;;;;;;8.22;100.00;100048.56;5072443;28;20203;-54
2023/01/15 02:03:32;;;;;;;20.10;14.10;;;;;;;8.17;100.00;100038.19;5072443;28;20202;-53
2023/01/15 02:06:02;;;;;;;21.90;13.27;;;;;;;8.16;100.00;100038.13;5053102;28;20199;-53
2023/01/15 02:08:31;;;;;;;21.07;14.43;;;;;;;8.22;100.00;100049.47;5055714;28;20197;-55
2023/01/15 02:10:58;;;;;;;21.17;14.83;;;;;;;8.19;100.00;100041.66;5073266;28;20202;-54
2023/01/15 02:13:32;;;;;;;21.03;14.53;;;;;;;8.21;100.00;100041.75;5072841;28;20681;-55
2023/01/15 02:16:05;;;;;;;18.53;13.17;;;;;;;8.24;100.00;100045.25;5072931;28;20227;-53
2023/01/15 02:18:40;;;;;;;19.77;13.93;;;;;;;8.25;100.00;100036.75;5073010;28;20191;-53
2023/01/15 02:21:19;;;;;;;19.47;14.63;;;;;;;8.26;100.00;100032.53;5073674;28;20218;-53
2023/01/15 02:24:02;;;;;;;19.03;13.27;;;;;;;8.25;100.00;100029.09;5072709;28;20256;-53
2023/01/15 02:27:05;;;;;;;18.70;12.93;;;;;;;8.20;100.00;100032.31;5072748;28;20202;-54
2023/01/15 02:29:44;;;;;;;18.70;12.37;;;;;;;8.12;100.00;100026.94;5072630;28;20663;-54
2023/01/15 02:32:17;;;;;;;19.57;13.13;;;;;;;8.14;100.00;100032.09;5073079;28;20196;-54
2023/01/15 02:34:50;;;;;;;17.02;13.63;;;;;;;8.14;100.00;100026.97;5070859;28;20945;-54
2023/01/15 02:37:23;;;;;;;17.37;12.57;;;;;;;8.17;100.00;100025.41;5072403;28;20202;-54
2023/01/15 02:39:52;;;;;;;19.97;12.53;;;;;;;8.23;100.00;100030.72;5072084;28;20273;-54
2023/01/15 02:42:22;;;;;;;20.63;13.90;;;;;;;8.30;100.00;100032.69;5072774;28;20294;-54
2023/01/15 02:44:52;;;;;;;16.77;11.53;;;;;;;8.26;100.00;100035.97;5072242;28;20674;-54
2023/01/15 02:47:25;;;;;;;15.83;11.70;;;;;;;8.25;100.00;100034.19;5072641;28;20199;-54
2023/01/15 02:49:55;;;;;;;17.70;12.90;;;;;;;8.27;100.00;100027.47;5072841;28;20206;-53
2023/01/15 02:52:27;;;;;;;17.73;12.80;;;;;;;8.29;100.00;100028.38;5072260;28;20616;-54
2023/01/15 02:55:00;;;;;;;18.00;13.17;;;;;;;8.21;100.00;100021.25;5072021;28;20222;-53
2023/01/15 02:57:33;;;;;;;19.07;12.33;;;;;;;8.26;100.00;100035.09;5072422;28;20195;-54
2023/01/15 03:00:02;;;;;;;17.67;13.23;;;;;;;8.30;100.00;100024.13;5069531;28;20192;-53
2023/01/15 03:02:36;;;;;;;19.13;14.17;;;;;;;8.22;100.00;100025.53;5062993;28;20196;-55
2023/01/15 03:05:09;;;;;;;22.45;17.30;;;;;;;8.32;100.00;100037.00;5052212;28;20473;-55
2023/01/15 03:07:42;;;;;;;20.63;14.77;;;;;;;8.26;100.00;100032.53;5060546;28;20283;-54
2023/01/15 03:10:11;;;;;;;21.77;15.23;;;;;;;8.31;100.00;100036.13;5052232;28;20203;-55
2023/01/15 03:18:21;;;;;;;21.30;15.60;;;;;;;8.26;100.00;100023.16;5051825;28;20195;-54
2023/01/15 03:20:52;;;;;;;21.40;16.07;;;;;;;8.07;100.00;99999.44;5051958;28;20564;-54
2023/01/15 03:23:24;;;;;;;23.80;17.23;;;;;;;8.21;100.00;100032.34;5056028;28;20194;-54
2023/01/15 03:25:51;;;;;;;25.90;18.03;;;;;;;8.11;100.00;100034.53;5092543;28;20282;-54
2023/01/15 03:28:25;;;;;;;22.47;14.93;;;;;;;8.14;100.00;100030.41;5091661;28;20562;-54
2023/01/15 03:30:52;;;;;;;20.33;15.13;;;;;;;8.13;100.00;100027.81;5091780;28;20186;-54
2023/01/15 03:33:19;;;;;;;22.20;15.23;;;;;;;8.07;100.00;100023.34;5092058;28;20187;-54
2023/01/15 03:35:51;;;;;;;20.73;14.73;;;;;;;8.07;100.00;100018.22;5091831;28;20279;-54
2023/01/15 03:38:21;;;;;;;18.43;14.53;;;;;;;8.10;100.00;100015.75;5092219;28;20225;-54
2023/01/15 03:40:55;;;;;;;20.73;14.77;;;;;;;8.03;100.00;100015.50;5092095;28;20227;-54
2023/01/15 03:43:43;;;;;;;19.83;14.10;;;;;;;7.98;100.00;99996.56;5092264;28;20194;-54
2023/01/15 03:46:20;;;;;;;19.30;15.07;;;;;;;7.88;100.00;99994.50;5093250;28;20195;-54
2023/01/15 03:48:56;;;;;;;20.70;14.67;;;;;;;8.06;100.00;100016.47;5096052;28;20202;-54
2023/01/15 03:51:29;;;;;;;19.13;13.83;;;;;;;8.09;100.00;100021.72;5095902;28;20198;-54
2023/01/15 03:53:59;;;;;;;19.60;14.03;;;;;;;8.07;100.00;100025.91;5056595;28;20184;-55
2023/01/15 03:56:33;;;;;;;20.63;14.73;;;;;;;8.11;100.00;100021.75;5055634;28;20223;-55
2023/01/15 03:59:05;;;;;;;20.50;14.67;;;;;;;8.09;100.00;100025.94;5055737;28;20192;-54
2023/01/15 04:01:36;;;;;;;19.97;14.57;;;;;;;8.13;100.00;100032.94;5056609;28;20241;-54
2023/01/15 04:04:05;;;;;;;22.07;15.47;;;;;;;8.08;100.00;100025.06;5055507;28;20203;-54
2023/01/15 04:06:35;;;;;;;22.70;15.00;;;;;;;8.18;100.00;100036.50;5055615;28;20544;-54
2023/01/15 04:09:04;;;;;;;22.30;15.17;;;;;;;8.04;100.00;100036.03;5056225;28;20192;-54
2023/01/15 04:11:31;;;;;;;22.77;15.60;;;;;;;7.90;100.00;100008.22;5055418;28;20188;-55
2023/01/15 04:13:58;;;;;;;18.93;15.87;;;;;;;7.96;100.00;100023.78;5055451;28;20184;-55
2023/01/15 04:16:28;;;;;;;21.47;15.83;;;;;;;8.04;100.00;100035.16;5055529;28;20219;-54
2023/01/15 04:18:55;;;;;;;21.53;15.83;;;;;;;7.89;100.00;100039.72;5055252;28;20199;-54
2023/01/15 04:21:22;;;;;;;22.80;15.20;;;;;;;7.89;100.00;100038.03;5055339;28;20528;-54
2023/01/15 04:23:49;;;;;;;22.23;15.97;;;;;;;7.99;100.00;100041.81;5055143;28;20610;-54
2023/01/15 04:26:16;;;;;;;24.77;18.07;;;;;;;8.03;100.00;100038.53;5054993;28;20548;-54
2023/01/15 04:28:43;;;;;;;25.30;16.93;;;;;;;8.07;100.00;100042.94;5054953;28;20245;-54
2023/01/15 04:31:10;;;;;;;24.80;17.23;;;;;;;8.03;100.00;100043.63;5054929;28;20188;-54
2023/01/15 04:33:39;;;;;;;26.30;17.07;;;;;;;8.02;100.00;100044.47;5055020;28;20188;-54
2023/01/15 04:36:06;;;;;;;29.63;18.83;;;;;;;8.02;100.00;100052.16;5054719;28;20261;-54
2023/01/15 04:38:33;;;;;;;28.70;17.87;;;;;;;8.00;100.00;100039.28;5074453;28;20576;-54
2023/01/15 04:46:32;;;;;;;28.23;17.70;;;;;;;8.04;100.00;100058.19;5075043;28;20248;-54
2023/01/15 04:49:01;;;;;;;30.13;18.30;;;;;;;8.05;100.00;100059.91;5074573;28;20184;-54
2023/01/15 04:51:27;;;;;;;30.53;19.73;;;;;;;8.05;100.00;100058.22;5074634;28;20191;-54
2023/01/15 04:53:54;;;;;;;28.57;18.00;;;;;;;8.03;100.00;100047.09;5074029;28;20196;-54
2023/01/15 04:56:21;;;;;;;39.80;20.27;;;;;;;8.02;100.00;100059.84;5073682;28;20220;-54
2023/01/15 04:58:48;;;;;;;32.53;18.10;;;;;;;8.04;100.00;100065.88;5074140;28;20190;-56
2023/01/15 05:01:16;;;;;;;33.67;20.47;;;;;;;8.02;100.00;100062.38;5074389;28;20276;-53
2023/01/15 05:03:43;;;;;;;35.37;20.37;;;;;;;8.04;100.00;100064.19;5074498;28;20242;-54
2023/01/15 05:06:13;;;;;;;33.37;20.97;;;;;;;7.97;100.00;100066.44;5074387;28;20196;-53
2023/01/15 05:08:40;;;;;;;35.57;19.70;;;;;;;7.94;100.00;100068.94;5074216;28;20222;-53
2023/01/15 05:11:07;;;;;;;37.20;20.60;;;;;;;7.83;100.00;100054.88;5074439;28;20218;-54
2023/01/15 05:13:34;;;;;;;33.80;19.07;;;;;;;7.91;100.00;100069.66;5073971;28;20188;-54
2023/01/15 05:16:09;;;;;;;37.87;20.80;;;;;;;7.79;100.00;100056.44;5074133;28;20219;-54
2023/01/15 05:18:36;;;;;;;34.93;19.70;;;;;;;7.88;100.00;100063.59;5074143;28;20198;-54
2023/01/15 05:21:03;;;;;;;33.97;19.17;;;;;;;7.88;100.00;100056.78;5073954;28;20647;-54
2023/01/15 05:23:31;;;;;;;32.17;18.77;;;;;;;7.82;100.00;100054.00;5074497;28;20203;-53
2023/01/15 05:25:58;;;;;;;33.60;18.97;;;;;;;7.93;100.00;100065.50;5074075;28;20196;-53
2023/01/15 05:28:25;;;;;;;35.13;18.93;;;;;;;7.94;100.00;100071.50;5074020;28;20187;-54
2023/01/15 05:30:52;;;;;;;32.57;18.63;;;;;;;7.93;100.00;100070.63;5073972;28;20594;-54
2023/01/15 05:33:18;;;;;;;31.73;18.90;;;;;;;7.99;100.00;100069.97;5073913;28;20202;-55
2023/01/15 05:35:45;;;;;;;32.90;20.03;;;;;;;7.98;100.00;100069.09;5072612;28;20272;-54
2023/01/15 05:38:12;;;;;;;32.37;21.40;;;;;;;8.01;100.00;100074.31;5073819;28;20241;-54
2023/01/15 05:40:40;;;;;;;35.50;21.33;;;;;;;7.96;100.00;100075.84;5073550;28;20703;-54
2023/01/15 05:43:07;;;;;;;31.30;19.93;;;;;;;7.98;100.00;100075.88;5073473;28;20652;-53
2023/01/15 05:45:35;;;;;;;24.93;16.90;;;;;;;8.00;100.00;100076.78;5073583;28;20571;-54
2023/01/15 05:48:02;;;;;;;20.73;14.93;;;;;;;8.01;100.00;100078.56;5074124;28;20195;-54
2023/01/15 05:50:29;;;;;;;23.73;14.70;;;;;;;7.96;100.00;100074.97;5073319;28;20193;-54
2023/01/15 05:52:56;;;;;;;21.67;15.03;;;;;;;7.96;100.00;100077.53;5073246;28;20187;-54
2023/01/15 05:55:23;;;;;;;23.10;14.30;;;;;;;7.96;100.00;100080.97;5073373;28;20540;-53
2023/01/15 05:57:51;;;;;;;20.80;13.70;;;;;;;8.01;100.00;100088.78;5073383;28;20545;-54
2023/01/15 06:00:19;;;;;;;16.47;12.53;;;;;;;7.94;100.00;100084.28;5073246;28;20187;-54
2023/01/15 06:02:48;;;;;;;15.63;13.07;;;;;;;7.17;100.00;99977.44;5073212;28;20192;-54
2023/01/15 06:05:18;;;;;;;20.20;13.13;;;;;;;7.72;100.00;100078.34;5073706;28;20192;-54
2023/01/15 06:07:47;;;;;;;17.67;13.23;;;;;;;7.61;100.00;100077.09;5073348;28;20190;-54
2023/01/15 06:10:15;;;;;;;19.33;13.57;;;;;;;7.65;100.00;100083.19;5071860;28;20192;-55
2023/01/15 06:12:42;;;;;;;16.90;13.00;;;;;;;7.59;100.00;100076.19;5073111;28;20191;-54
2023/01/15 06:15:11;;;;;;;20.47;13.37;;;;;;;7.65;100.00;100081.53;5072772;28;20190;-54
2023/01/15 06:17:38;;;;;;;23.33;14.10;;;;;;;7.64;100.00;100071.22;5072674;28;20215;-54
2023/01/15 06:20:05;;;;;;;19.83;13.33;;;;;;;7.70;100.00;100080.00;5072803;28;20195;-53
2023/01/15 06:22:32;;;;;;;18.83;13.67;;;;;;;7.74;100.00;100073.31;5072776;28;20647;-54
2023/01/15 06:24:59;;;;;;;21.50;13.63;;;;;;;7.78;100.00;100075.16;5072651;28;20188;-54
2023/01/15 06:27:26;;;;;;;21.27;14.80;;;;;;;7.80;100.00;100075.22;5072721;28;20193;-53
2023/01/15 06:29:52;;;;;;;19.03;14.40;;;;;;;7.64;100.00;100048.22;5073122;28;20194;-54
2023/01/15 06:32:21;;;;;;;24.00;15.17;;;;;;;7.83;100.00;100077.91;5072474;28;20195;-54
2023/01/15 06:34:47;;;;;;;22.83;13.50;;;;;;;7.76;100.00;100076.78;5072600;28;20187;-54
2023/01/15 06:37:14;;;;;;;22.53;13.93;;;;;;;7.78;100.00;100080.28;5072204;28;20234;-54
2023/01/15 06:39:41;;;;;;;22.37;13.53;;;;;;;7.76;100.00;100078.47;5071206;28;20234;-54
2023/01/15 06:47:38;;;;;;;20.83;13.43;;;;;;;7.77;100.00;100081.09;5072175;28;20289;-54
2023/01/15 06:50:06;;;;;;;22.93;13.27;;;;;;;7.79;100.00;100094.81;5072190;28;20191;-54
2023/01/15 06:52:33;;;;;;;24.03;14.17;;;;;;;7.80;100.00;100088.03;5072151;28;20187;-53
2023/01/15 06:54:59;;;;;;;25.77;14.73;;;;;;;7.76;100.00;100091.25;5074919;28;20191;-51
2023/01/15 06:57:28;;;;;;;27.63;16.43;;;;;;;7.63;100.00;100098.50;5080991;28;20267;-54
2023/01/15 06:59:54;;;;;;;28.87;17.00;;;;;;;7.72;100.00;100098.81;5083462;28;20230;-54
2023/01/15 07:02:21;;;;;;;25.37;16.67;;;;;;;7.67;100.00;100100.34;5071048;28;20282;-54
2023/01/15 07:04:50;;;;;;;27.20;17.43;;;;;;;7.65;100.00;100096.00;5071728;28;20224;-54
2023/01/15 07:07:19;;;;;;;27.20;16.60;;;;;;;7.68;100.00;100102.09;5071709;28;20196;-54
2023/01/15 07:09:46;;;;;;;30.23;17.50;;;;;;;7.65;100.00;100099.44;5071872;28;20191;-54
2023/01/15 07:12:13;;;;;;;26.13;16.33;;;;;;;7.74;100.00;100098.91;5071577;28;20187;-53
2023/01/15 07:14:40;;;;;;;24.47;15.50;;;;;;;7.70;100.00;100095.34;5071463;28;20194;-53
2023/01/15 07:17:07;;;;;;;24.90;17.73;;;;;;;7.76;100.00;100093.81;5070511;28;20440;-53
2023/01/15 07:19:33;;;;;;;22.70;15.00;;;;;;;7.81;100.00;100103.41;5061842;28;20191;-54
2023/01/15 07:22:02;;;;;;;21.47;14.23;;;;;;;7.79;100.00;100091.38;5070397;28;20202;-53
2023/01/15 07:24:29;;;;;;;19.57;13.97;;;;;;;7.84;100.00;100092.41;5072347;28;20202;-53
2023/01/15 07:26:55;;;;;;;22.17;14.67;;;;;;;7.85;100.00;100096.72;5071743;28;20256;-54
2023/01/15 07:29:22;;;;;;;19.93;15.17;;;;;;;7.87;100.00;100105.31;5071531;28;20248;-53
2023/01/15 07:31:49;;;;;;;20.47;14.80;;;;;;;7.82;100.00;100096.63;5072038;28;20214;-54
2023/01/15 07:34:16;;;;;;;21.73;15.00;;;;;;;7.87;100.00;100113.00;5071590;28;20187;-54
2023/01/15 07:36:43;;;;;;;22.40;16.37;;;;;;;7.81;100.00;100099.97;5071516;28;20690;-53
2023/01/15 07:39:11;;;;;;;21.17;14.00;;;;;;;7.75;100.00;100095.50;5071389;28;20191;-52
2023/01/15 07:50:02;;;;;;;21.90;14.17;;;;;;;8.13;100.00;100105.44;5071710;28;20240;-53
2023/01/15 07:52:28;;;;;;;23.47;15.33;;;;;;;8.13;99.39;100109.72;5070899;28;20195;-55
2023/01/15 07:54:57;;;;;;;20.07;14.20;;;;;;;8.23;99.42;100110.09;5071651;28;20198;-55
2023/01/15 07:57:24;;;;;;;23.80;15.33;;;;;;;8.29;99.41;100112.03;5071326;28;20219;-59
2023/01/15 07:59:50;;;;;;;25.73;16.00;;;;;;;8.32;98.94;100107.84;5071011;28;20190;-55
2023/01/15 08:02:17;;;;;;;24.33;17.03;;;;;;;8.43;98.04;100115.06;5070275;28;20240;-55
2023/01/15 08:04:46;;;;;;;22.60;16.60;;;;;;;8.41;98.21;100125.22;5071472;28;20188;-54
2023/01/15 08:07:14;;;;;;;22.37;16.67;;;;;;;8.38;98.92;100120.00;5073521;28;20685;-54
2023/01/15 08:09:41;;;;;;;23.73;15.40;;;;;;;8.39;98.24;100126.00;5075694;28;20189;-54
2023/01/15 08:15:13;;;;;;;24.50;16.77;;;;;;;8.32;98.03;100127.50;5088801;28;20563;-55
2023/01/15 08:17:41;;;;;;;24.53;17.37;;;;;;;8.46;98.35;100128.81;5091429;28;20246;-55
2023/01/15 08:20:11;;;;;;;25.13;18.13;;;;;;;8.51;98.67;100121.31;5073803;28;20227;-55
2023/01/15 08:22:44;;;;;;;24.20;17.43;;;;;;;8.61;99.55;100120.78;5057324;28;20237;-55
2023/01/15 08:25:13;;;;;;;27.97;17.83;;;;;;;8.78;97.96;100123.13;5051481;28;20253;-55
2023/01/15 08:27:42;;;;;;;26.60;17.50;;;;;;;8.77;96.62;100113.69;5065525;28;20199;-54
2023/01/15 08:30:11;;;;;;;29.57;16.77;;;;;;;8.79;95.62;100116.28;5086744;28;20201;-54
2023/01/15 08:32:39;;;;;;;24.33;16.30;;;;;;;8.85;95.42;100125.03;5091439;28;20248;-54
2023/01/15 08:35:07;;;;;;;29.47;18.43;;;;;;;8.70;95.07;100093.81;5071771;28;20192;-54
2023/01/15 08:37:33;;;;;;;24.77;17.33;;;;;;;8.58;96.04;100120.69;5087609;28;20222;-53
2023/01/15 08:40:00;;;;;;;31.30;19.03;;;;;;;8.62;96.03;100122.56;5093889;28;20303;-53
2023/01/15 08:42:27;;;;;;;24.93;16.47;;;;;;;8.72;96.54;100117.78;5074563;28;20536;-53
2023/01/15 08:44:56;;;;;;;27.13;17.67;;;;;;;8.78;96.44;100117.13;5074822;28;20200;-54
2023/01/15 08:47:23;;;;;;;27.43;18.00;;;;;;;8.88;95.59;100109.78;5074395;28;20289;-55
2023/01/15 08:49:49;;;;;;;29.33;19.03;;;;;;;8.96;94.39;100116.81;5074445;28;20191;-54
2023/01/15 08:52:16;;;;;;;26.93;17.27;;;;;;;9.11;94.17;100114.78;5066897;28;20195;-54
2023/01/15 08:54:43;;;;;;;26.37;18.87;;;;;;;8.87;92.87;100095.22;5057412;28;20249;-55
2023/01/15 08:57:11;;;;;;;32.27;19.97;;;;;;;8.99;92.56;100115.25;5054659;28;20225;-54
2023/01/15 08:59:38;;;;;;;28.30;19.67;;;;;;;9.10;92.85;100116.47;5056627;28;20508;-55
2023/01/15 09:02:06;;;;;;;30.70;21.50;;;;;;;9.11;92.49;100112.22;5070350;28;20187;-54
2023/01/15 09:04:35;;;;;;;32.30;21.07;;;;;;;9.10;91.80;100108.78;5074423;28;20249;-53
2023/01/15 09:07:03;;;;;;;30.83;21.53;;;;;;;9.01;92.21;100112.75;5074089;28;20245;-54
2023/01/15 09:09:30;;;;;;;26.30;19.07;;;;;;;8.87;93.90;100112.31;5084202;28;20195;-55
2023/01/15 09:11:57;;;;;;;33.30;23.15;;;;;;;9.07;94.52;100107.78;5093646;28;20432;-55
2023/01/15 09:14:24;;;;;;;35.37;20.27;;;;;;;9.10;93.61;100106.22;5094161;28;20187;-55
2023/01/15 09:16:51;;;;;;;33.07;22.70;;;;;;;9.07;92.96;100098.41;5094103;28;20219;-56
2023/01/15 09:19:19;;;;;;;28.10;20.77;;;;;;;9.17;93.28;100103.03;5085633;28;20536;-56
2023/01/15 09:21:46;;;;;;;30.37;19.40;;;;;;;8.84;93.36;100097.66;5073685;28;20277;-56
2023/01/15 09:24:13;;;;;;;22.20;16.73;;;;;;;8.93;92.94;100099.66;5073627;28;20700;-56
2023/01/15 09:26:40;;;;;;;27.87;18.23;;;;;;;8.99;92.86;100091.31;5073736;28;20237;-56
2023/01/15 09:29:08;;;;;;;24.47;16.33;;;;;;;9.06;92.62;100083.00;5073707;28;20198;-56
2023/01/15 09:31:35;;;;;;;26.07;17.60;;;;;;;9.11;93.37;100084.00;5069339;28;20187;-57
2023/01/15 09:34:02;;;;;;;25.50;17.00;;;;;;;9.15;93.05;100081.59;5059862;28;20196;-57
2023/01/15 09:36:34;;;;;;;20.97;14.80;;;;;;;9.21;91.43;100079.22;5053529;28;20226;-57
2023/01/15 09:39:03;;;;;;;20.23;14.90;;;;;;;9.28;90.83;100077.72;5068731;28;20196;-56
2023/01/15 09:44:33;;;;;;;26.97;17.10;;;;;;;9.07;90.71;100039.47;5073312;28;20198;-56
2023/01/15 09:47:08;;;;;;;21.20;14.20;;;;;;;9.29;90.65;100072.63;5074021;28;20220;-56
2023/01/15 09:49:51;;;;;;;17.50;13.70;;;;;;;9.35;90.01;100072.81;5073223;28;20721;-56
2023/01/15 09:52:30;;;;;;;21.85;16.58;;;;;;;9.43;89.90;100075.59;5079225;28;20447;-55
2023/01/15 09:55:05;;;;;;;19.10;16.20;;;;;;;9.51;88.65;100076.69;5081168;28;20248;-56
2023/01/15 09:57:33;;;;;;;22.70;15.60;;;;;;;9.29;87.91;100079.44;5072699;28;20234;-56
2023/01/15 10:00:02;;;;;;;18.83;15.40;;;;;;;9.23;88.61;100066.47;5073135;28;20183;-56
2023/01/15 10:02:34;;;;;;;21.20;15.23;;;;;;;9.29;89.22;100064.06;5073072;28;20190;-57
2023/01/15 10:05:07;;;;;;;20.30;14.47;;;;;;;9.20;88.42;100056.09;5072973;28;20564;-56
2023/01/15 10:07:41;;;;;;;20.07;14.43;;;;;;;9.27;89.20;100061.47;5071432;28;20694;-56
2023/01/15 10:10:14;;;;;;;22.33;15.30;;;;;;;9.10;88.90;100047.25;5072206;28;20264;-55
2023/01/15 10:12:44;;;;;;;22.77;16.97;;;;;;;9.15;89.09;100044.81;5072635;28;20247;-55
2023/01/15 10:15:28;;;;;;;18.17;13.33;;;;;;;9.06;88.82;100042.00;5071735;28;20218;-56
2023/01/15 10:17:58;;;;;;;19.83;14.80;;;;;;;9.10;89.88;100031.00;5070696;28;20212;-56
2023/01/15 10:21:04;;;;;;;22.63;14.90;;;;;;;9.12;90.29;100032.78;5072327;28;20195;-56
2023/01/15 10:23:39;;;;;;;22.77;14.27;;;;;;;9.09;90.23;100029.28;5036502;28;20238;-56
2023/01/15 10:26:16;;;;;;;21.60;14.67;;;;;;;9.14;89.81;100020.91;5053194;28;20206;-56
2023/01/15 10:28:58;;;;;;;21.20;17.20;;;;;;;9.21;90.50;100015.13;5052358;28;20254;-56
2023/01/15 10:31:45;;;;;;;21.70;14.93;;;;;;;9.28;89.92;100001.69;5052176;28;20187;-56
2023/01/15 10:34:48;;;;;;;21.00;14.70;;;;;;;9.39;89.38;100001.97;5051905;28;20187;-55
2023/01/15 10:37:22;;;;;;;21.97;14.70;;;;;;;9.36;89.93;100001.88;5051858;28;20266;-55
2023/01/15 10:40:09;;;;;;;19.70;14.13;;;;;;;9.22;89.94;100000.63;5052659;28;20232;-55
2023/01/15 10:42:44;;;;;;;17.37;12.13;;;;;;;9.26;88.77;99989.59;5052268;28;20188;-55
2023/01/15 10:45:17;;;;;;;19.67;12.47;;;;;;;9.35;88.71;99985.63;5052547;28;20245;-55
2023/01/15 10:47:46;;;;;;;22.75;16.08;;;;;;;9.39;88.72;99989.16;5051461;28;20439;-56
2023/01/15 10:50:18;;;;;;;17.17;12.47;;;;;;;9.47;88.00;99992.81;5051830;28;20561;-55
2023/01/15 10:52:50;;;;;;;22.83;13.23;;;;;;;9.54;88.36;99981.88;5052063;28;20188;-55
2023/01/15 10:55:25;;;;;;;17.90;12.23;;;;;;;9.70;88.36;99973.78;5051303;28;20188;-55
2023/01/15 10:57:59;;;;;;;20.10;12.27;;;;;;;9.57;87.91;99973.41;5051956;28;20599;-55
2023/01/15 11:00:26;;;;;;;21.20;13.13;;;;;;;9.61;87.29;99976.13;5052306;28;20279;-55
2023/01/15 11:03:02;;;;;;;18.37;12.37;;;;;;;9.43;88.69;99967.88;5051895;28;20556;-55
2023/01/15 11:05:32;;;;;;;17.10;12.83;;;;;;;9.39;89.18;99958.38;5055468;28;20663;-55
2023/01/15 11:08:00;;;;;;;22.10;12.63;;;;;;;9.55;88.75;99963.13;5070526;28;20210;-55
2023/01/15 11:10:28;;;;;;;17.97;12.37;;;;;;;9.59;87.50;99956.34;5070005;28;20203;-55
2023/01/15 11:21:21;;;;;;;22.60;12.27;;;;;;;9.60;86.43;99951.28;5091934;28;20194;-55
2023/01/15 11:23:49;;;;;;;25.70;12.30;;;;;;;9.59;87.06;99946.97;5091481;28;20198;-54
2023/01/15 11:26:24;;;;;;;20.87;12.90;;;;;;;9.50;86.52;99939.03;5091929;28;20191;-55
2023/01/15 11:28:51;;;;;;;19.07;12.37;;;;;;;9.50;86.98;99942.44;5077507;28;20699;-55
2023/01/15 11:31:18;;;;;;;20.77;13.03;;;;;;;9.52;87.25;99937.38;5072110;28;20195;-55
2023/01/15 11:33:57;;;;;;;19.67;13.13;;;;;;;9.35;86.82;99926.66;5071668;28;20187;-55
2023/01/15 11:36:26;;;;;;;21.67;12.63;;;;;;;9.40;87.09;99929.34;5071925;28;20199;-55
2023/01/15 11:38:53;;;;;;;19.07;12.80;;;;;;;9.45;87.33;99930.31;5071616;28;20219;-55
2023/01/15 11:50:42;;;;;;;24.83;13.43;;;;;;;9.50;87.23;99929.63;5071206;28;20219;-55
2023/01/15 11:52:26;;;;;;;23.60;14.60;;;;;;;9.44;86.39;99916.66;5071357;28;20648;-56
2023/01/15 11:54:55;;;;;;;24.93;15.70;;;;;;;9.20;87.91;99910.81;5071201;28;20643;-56
2023/01/15 11:57:32;;;;;;;29.27;17.40;;;;;;;9.32;88.77;99918.00;5071209;28;20220;-56
2023/01/15 11:59:59;;;;;;;35.10;21.87;;;;;;;9.34;88.66;99911.19;5071782;28;20621;-55
2023/01/15 12:02:37;;;;;;;33.67;19.10;;;;;;;9.43;88.50;99904.66;5071277;28;20285;-56
2023/01/15 12:05:04;;;;;;;25.13;18.77;;;;;;;9.27;87.81;99896.50;5090818;28;20566;-56
2023/01/15 12:07:32;;;;;;;26.73;16.80;;;;;;;9.35;88.27;99900.13;5073679;28;20195;-56
2023/01/15 12:10:13;;;;;;;31.63;19.20;;;;;;;9.45;88.60;99894.41;5075239;28;20194;-56
2023/01/15 12:12:58;;;;;;;24.30;14.97;;;;;;;9.33;88.06;99894.97;5075320;28;20192;-56
2023/01/15 12:15:39;;;;;;;26.47;15.57;;;;;;;9.32;88.57;99894.91;5075061;28;20188;-56
2023/01/15 12:18:47;;;;;;;25.67;15.83;;;;;;;9.17;88.08;99885.13;5055595;28;20307;-56
2023/01/15 12:21:28;;;;;;;24.70;15.57;;;;;;;9.26;88.17;99889.63;5054872;28;20271;-56